createdAt,value
2023-04-25T00:00:46.472Z,99809.56
2023-04-25T00:03:14.870Z,99798.25
2023-04-25T00:05:45.413Z,99800.91
2023-04-25T00:08:14.758Z,99799.19
2023-04-25T00:10:45.553Z,99799.09
2023-04-25T00:13:14.810Z,99790.41
2023-04-25T00:15:43.497Z,99797.28
2023-04-25T00:18:13.677Z,99780.66
2023-04-25T00:20:47.668Z,99792.03
2023-04-25T00:23:19.106Z,99783.31
2023-04-25T00:25:47.330Z,99783.31
2023-04-25T00:28:16.018Z,99773.53
2023-04-25T00:30:45.164Z,99770.84
2023-04-25T00:33:13.108Z,99776.34
2023-04-25T00:35:40.982Z,99773.59
2023-04-25T00:38:08.761Z,99773.78
2023-04-25T00:40:38.137Z,99760.03
2023-04-25T00:43:13.126Z,99774.38
2023-04-25T00:48:38.491Z,99783.22
2023-04-25T00:51:08.801Z,99773.94
2023-04-25T00:53:36.802Z,99780.22
2023-04-25T00:56:11.111Z,99782.91
2023-04-25T00:58:40.386Z,99812.75
2023-04-25T01:01:10.367Z,99810.03
2023-04-25T01:03:59.274Z,99795.94
2023-04-25T01:06:29.625Z,99770.63
2023-04-25T01:09:00.590Z,99783.03
2023-04-25T01:11:30.809Z,99804.19
2023-04-25T01:14:00.551Z,99798.34
2023-04-25T01:16:31.396Z,99802.13
2023-04-25T01:19:00.643Z,99804.84
2023-04-25T01:21:31.994Z,99802.28
2023-04-25T01:24:04.827Z,99799.53
2023-04-25T01:26:33.595Z,99803.66
2023-04-25T01:29:02.231Z,99814.31
2023-04-25T01:31:33.476Z,99795.16
2023-04-25T01:34:01.479Z,99825.81
2023-04-25T01:36:33.565Z,99812.84
2023-04-25T01:39:01.970Z,99827.53
2023-04-25T01:41:32.567Z,99809.50
2023-04-25T01:44:00.664Z,99811.31
2023-04-25T01:46:34.794Z,99836.63
2023-04-25T01:49:05.007Z,99828.91
2023-04-25T01:51:34.923Z,99826.13
2023-04-25T01:54:03.738Z,99807.75
2023-04-25T01:56:38.978Z,99825.88
2023-04-25T01:59:11.012Z,99813.81
2023-04-25T02:01:41.689Z,99834.94
2023-04-25T02:04:32.656Z,99816.78
2023-04-25T02:07:09.835Z,99825.97
2023-04-25T02:09:39.052Z,99833.00
2023-04-25T02:12:11.544Z,99825.22
2023-04-25T02:14:41.721Z,99830.63
2023-04-25T02:17:11.164Z,99848.09
2023-04-25T02:19:39.229Z,99831.50
2023-04-25T02:22:09.698Z,99849.13
2023-04-25T02:24:37.725Z,99851.84
2023-04-25T02:27:05.676Z,99840.34
2023-04-25T02:29:33.527Z,99849.97
2023-04-25T02:32:03.337Z,99835.88
2023-04-25T02:34:34.086Z,99823.53
2023-04-25T02:37:05.637Z,99813.22
2023-04-25T02:39:36.584Z,99838.06
2023-04-25T02:42:04.708Z,99853.41
2023-04-25T02:44:34.276Z,99845.44
2023-04-25T02:47:02.679Z,99835.03
2023-04-25T02:49:31.502Z,99857.09
2023-04-25T02:52:03.955Z,99850.28
2023-04-25T02:54:32.943Z,99859.22
2023-04-25T02:57:04.354Z,99852.16
2023-04-25T02:59:33.200Z,99855.38
2023-04-25T03:02:16.952Z,99848.47
2023-04-25T03:04:45.027Z,99868.88
2023-04-25T03:07:15.895Z,99886.38
2023-04-25T03:09:46.034Z,99881.97
2023-04-25T03:12:16.202Z,99880.31
2023-04-25T03:14:46.949Z,99856.09
2023-04-25T03:17:15.421Z,99880.47
2023-04-25T03:19:43.718Z,99877.03
2023-04-25T03:22:12.435Z,99875.66
2023-04-25T03:24:43.846Z,99861.72
2023-04-25T03:27:23.405Z,99890.84
2023-04-25T03:29:58.037Z,99882.22
2023-04-25T03:32:28.927Z,99890.06
2023-04-25T03:34:58.846Z,99886.78
2023-04-25T03:37:29.556Z,99902.72
2023-04-25T03:39:57.567Z,99894.91
2023-04-25T03:42:25.633Z,99897.47
2023-04-25T03:44:57.564Z,99895.13
2023-04-25T03:47:37.218Z,99900.28
2023-04-25T03:50:15.598Z,99885.34
2023-04-25T03:52:46.815Z,99897.88
2023-04-25T03:55:15.338Z,99901.66
2023-04-25T03:57:48.620Z,99924.63
2023-04-25T04:00:18.390Z,99914.28
2023-04-25T04:02:46.449Z,99927.34
2023-04-25T04:05:15.072Z,99933.44
2023-04-25T04:07:44.645Z,99935.25
2023-04-25T04:10:16.086Z,99944.19
2023-04-25T04:12:47.647Z,99931.81
2023-04-25T04:15:20.064Z,99940.56
2023-04-25T04:17:48.137Z,99943.41
2023-04-25T04:20:16.621Z,99948.53
2023-04-25T04:22:44.848Z,99959.78
2023-04-25T04:25:13.022Z,99968.97
2023-04-25T04:27:41.584Z,99958.34
2023-04-25T04:30:11.997Z,99943.38
2023-04-25T04:32:44.690Z,99948.69
2023-04-25T04:35:19.363Z,99955.97
2023-04-25T04:37:48.635Z,99958.34
2023-04-25T04:40:17.354Z,99954.00
2023-04-25T04:42:50.776Z,99964.34
2023-04-25T04:45:22.428Z,99972.72
2023-04-25T04:47:54.759Z,99955.09
2023-04-25T04:50:23.102Z,99973.72
2023-04-25T04:52:52.071Z,99950.13
2023-04-25T04:55:20.142Z,99981.56
2023-04-25T04:57:47.955Z,99974.34
2023-04-25T05:00:19.665Z,99977.66
2023-04-25T05:02:48.075Z,99975.78
2023-04-25T05:05:21.943Z,99974.03
2023-04-25T05:07:49.952Z,99974.69
2023-04-25T05:10:18.469Z,99972.09
2023-04-25T05:12:46.897Z,99993.69
2023-04-25T05:15:19.457Z,99992.66
2023-04-25T05:17:47.739Z,99985.69
2023-04-25T05:20:20.688Z,99988.19
2023-04-25T05:23:06.483Z,99987.34
2023-04-25T05:25:36.606Z,99980.44
2023-04-25T05:28:06.613Z,100019.56
2023-04-25T05:30:34.774Z,100007.41
2023-04-25T05:33:02.728Z,100024.91
2023-04-25T05:35:37.366Z,100019.56
2023-04-25T05:38:05.330Z,100002.16
2023-04-25T05:40:37.332Z,100031.78
2023-04-25T05:43:05.381Z,100003.78
2023-04-25T05:45:36.601Z,99998.63
2023-04-25T05:48:04.894Z,99985.78
2023-04-25T05:50:46.907Z,100011.44
2023-04-25T05:53:15.276Z,100034.94
2023-04-25T05:55:43.527Z,100034.31
2023-04-25T05:58:15.460Z,100036.00
2023-04-25T06:00:45.146Z,100052.88
2023-04-25T06:03:18.725Z,100043.06
2023-04-25T06:05:53.917Z,100050.50
2023-04-25T06:08:22.594Z,100061.84
2023-04-25T06:10:51.391Z,100054.66
2023-04-25T06:13:25.229Z,100055.13
2023-04-25T06:15:55.942Z,100097.44
2023-04-25T06:18:27.064Z,100085.41
2023-04-25T06:20:57.345Z,100081.47
2023-04-25T06:23:29.053Z,100101.59
2023-04-25T06:26:02.894Z,100082.47
2023-04-25T06:28:34.750Z,100092.75
2023-04-25T06:31:02.956Z,100099.06
2023-04-25T06:33:32.238Z,100125.63
2023-04-25T06:36:01.531Z,100105.81
2023-04-25T06:38:30.038Z,100115.78
2023-04-25T06:40:58.580Z,100102.84
2023-04-25T06:43:34.233Z,100063.41
2023-04-25T06:46:02.679Z,100083.44
2023-04-25T06:48:30.613Z,100087.41
2023-04-25T06:50:59.369Z,100055.41
2023-04-25T06:53:28.808Z,100018.13
2023-04-25T06:56:01.486Z,99981.94
2023-04-25T06:58:31.977Z,100000.41
2023-04-25T07:01:01.084Z,99993.44
2023-04-25T07:03:29.214Z,99934.16
2023-04-25T07:05:57.306Z,99956.94
2023-04-25T07:08:25.544Z,99929.34
2023-04-25T07:10:58.036Z,99891.03
2023-04-25T07:13:27.237Z,99852.47
2023-04-25T07:16:00.955Z,99836.78
2023-04-25T07:18:29.324Z,99792.31
2023-04-25T07:20:57.250Z,99757.13
2023-04-25T07:23:26.311Z,99716.88
2023-04-25T07:25:58.251Z,99650.41
2023-04-25T07:28:27.066Z,99608.91
2023-04-25T07:30:55.445Z,99608.31
2023-04-25T07:33:24.753Z,99546.09
2023-04-25T07:35:53.176Z,99541.34
2023-04-25T07:38:26.994Z,99440.53
2023-04-25T07:40:56.780Z,99490.63
2023-04-25T07:43:24.822Z,99543.78
2023-04-25T07:45:52.882Z,99467.50
2023-04-25T07:48:23.580Z,99348.06
2023-04-25T07:50:51.779Z,99381.47
2023-04-25T07:53:24.987Z,99384.06
2023-04-25T07:55:56.530Z,99434.75
2023-04-25T07:58:26.518Z,99475.41
2023-04-25T08:00:54.656Z,99549.03
2023-04-25T08:03:26.271Z,99551.03
2023-04-25T08:05:55.305Z,99557.13
2023-04-25T08:08:23.698Z,99540.31
2023-04-25T08:10:52.338Z,99478.84
2023-04-25T08:13:20.750Z,99388.53
2023-04-25T08:15:51.918Z,99298.75
2023-04-25T08:18:25.401Z,99351.94
2023-04-25T08:20:53.787Z,99356.97
2023-04-25T08:23:22.453Z,99549.06
2023-04-25T08:25:53.063Z,99589.06
2023-04-25T08:28:24.885Z,99381.97
2023-04-25T08:30:55.090Z,99322.78
2023-04-25T08:33:26.354Z,99369.53
2023-04-25T08:35:57.993Z,99380.56
2023-04-25T08:38:28.232Z,99448.69
2023-04-25T08:41:00.247Z,99473.97
2023-04-25T08:43:28.826Z,99432.00
2023-04-25T08:46:02.774Z,99246.63
2023-04-25T08:48:31.521Z,99150.25
2023-04-25T08:50:59.887Z,99172.13
2023-04-25T08:53:29.529Z,99135.31
2023-04-25T08:55:58.645Z,98996.22
2023-04-25T08:58:29.874Z,98959.78
2023-04-25T09:01:10.534Z,99003.69
2023-04-25T09:03:39.149Z,98909.03
2023-04-25T09:06:08.178Z,98865.03
2023-04-25T09:08:38.573Z,98936.34
2023-04-25T09:11:06.824Z,98926.63
2023-04-25T09:13:43.336Z,98854.06
2023-04-25T09:16:19.003Z,98844.34
2023-04-25T09:18:54.501Z,98811.00
2023-04-25T09:21:26.334Z,98915.50
2023-04-25T09:23:54.789Z,98751.44
2023-04-25T09:26:25.029Z,98726.72
2023-04-25T09:29:08.632Z,98913.19
2023-04-25T09:31:41.208Z,99022.19
2023-04-25T09:34:12.953Z,99160.13
2023-04-25T09:36:43.208Z,99017.63
2023-04-25T09:39:21.558Z,99107.28
2023-04-25T09:41:50.331Z,99042.44
2023-04-25T09:44:30.294Z,99043.13
2023-04-25T09:47:00.334Z,98876.78
2023-04-25T09:49:33.140Z,98972.81
2023-04-25T09:52:02.167Z,98872.25
2023-04-25T09:54:35.745Z,98794.34
2023-04-25T09:57:17.952Z,98758.56
2023-04-25T09:59:48.303Z,98803.06
2023-04-25T10:02:21.268Z,98679.22
2023-04-25T10:05:00.562Z,98834.09
2023-04-25T10:07:36.099Z,98865.38
2023-04-25T10:10:07.194Z,98850.84
2023-04-25T10:12:38.821Z,98817.75
2023-04-25T10:15:18.486Z,98726.47
2023-04-25T10:17:49.225Z,98741.16
2023-04-25T10:20:20.137Z,98933.19
2023-04-25T10:22:55.443Z,98855.19
2023-04-25T10:25:27.156Z,98662.69
2023-04-25T10:27:56.812Z,98735.38
2023-04-25T10:30:26.507Z,98813.59
2023-04-25T10:32:58.642Z,98692.78
2023-04-25T10:35:29.304Z,98708.72
2023-04-25T10:38:10.824Z,98758.63
2023-04-25T10:40:41.596Z,98625.00
2023-04-25T10:43:49.465Z,98732.44
2023-04-25T10:46:22.798Z,98749.47
2023-04-25T10:48:57.230Z,98737.94
2023-04-25T10:51:40.066Z,98731.66
2023-04-25T10:54:12.716Z,98875.38
2023-04-25T10:56:45.829Z,98846.47
2023-04-25T10:59:20.733Z,98894.56
2023-04-25T11:01:54.613Z,98897.84
2023-04-25T11:04:26.973Z,98890.69
2023-04-25T11:07:10.880Z,98967.63
2023-04-25T11:09:45.308Z,98766.09
2023-04-25T11:12:15.098Z,98809.59
2023-04-25T11:14:49.256Z,98875.50
2023-04-25T11:17:29.923Z,98820.88
2023-04-25T11:20:07.645Z,98844.88
2023-04-25T11:22:37.157Z,98812.38
2023-04-25T11:25:15.748Z,98751.91
2023-04-25T11:27:53.635Z,98802.13
2023-04-25T11:30:26.445Z,99035.94
2023-04-25T11:32:56.867Z,99078.78
2023-04-25T11:35:34.383Z,99138.34
2023-04-25T11:38:03.809Z,99051.06
2023-04-25T11:40:33.289Z,98864.63
2023-04-25T11:43:03.182Z,98990.47
2023-04-25T11:45:34.143Z,98971.38
2023-04-25T11:48:04.925Z,98900.88
2023-04-25T11:50:37.108Z,98969.34
2023-04-25T11:53:05.207Z,98960.00
2023-04-25T11:55:55.663Z,98879.97
2023-04-25T11:58:29.094Z,98889.72
2023-04-25T12:01:04.354Z,99023.28
2023-04-25T12:03:34.598Z,99118.53
2023-04-25T12:06:21.108Z,99131.41
2023-04-25T12:09:06.192Z,99124.59
2023-04-25T12:11:35.763Z,99085.25
2023-04-25T12:14:09.862Z,99009.78
2023-04-25T12:16:46.059Z,99023.28
2023-04-25T12:19:20.174Z,99088.38
2023-04-25T12:21:57.858Z,98966.66
2023-04-25T12:24:32.208Z,98946.06
2023-04-25T12:27:10.544Z,98992.94
2023-04-25T12:29:49.768Z,99027.25
2023-04-25T12:32:18.838Z,98932.59
2023-04-25T12:34:47.206Z,98928.94
2023-04-25T12:37:18.056Z,99021.88
2023-04-25T12:39:47.987Z,99126.97
2023-04-25T12:42:16.366Z,99140.22
2023-04-25T12:44:45.948Z,99221.47
2023-04-25T12:47:14.364Z,99198.84
2023-04-25T12:49:42.469Z,99198.66
2023-04-25T12:52:15.526Z,99176.06
2023-04-25T12:54:48.925Z,99173.06
2023-04-25T12:57:17.677Z,99086.53
2023-04-25T12:59:46.092Z,99082.13
2023-04-25T13:02:14.517Z,99116.00
2023-04-25T13:04:49.725Z,99185.50
2023-04-25T13:07:19.268Z,99267.19
2023-04-25T13:09:50.320Z,99208.78
2023-04-25T13:12:19.275Z,99216.88
2023-04-25T13:14:50.419Z,99180.94
2023-04-25T13:17:18.570Z,99269.53
2023-04-25T13:19:59.026Z,99272.28
2023-04-25T13:22:30.731Z,99291.94
2023-04-25T13:25:10.485Z,99325.84
2023-04-25T13:27:42.057Z,99331.28
2023-04-25T13:30:13.518Z,99335.88
2023-04-25T13:32:42.394Z,99389.38
2023-04-25T13:35:19.977Z,99391.94
2023-04-25T13:37:53.759Z,99422.53
2023-04-25T13:40:28.000Z,99292.97
2023-04-25T13:43:02.693Z,99299.72
2023-04-25T13:45:33.938Z,99220.34
2023-04-25T13:48:02.190Z,99256.28
2023-04-25T13:50:31.372Z,99295.31
2023-04-25T13:52:59.515Z,99313.81
2023-04-25T13:55:29.565Z,99301.66
2023-04-25T13:57:57.557Z,99324.34
2023-04-25T14:00:26.458Z,99399.19
2023-04-25T14:02:54.920Z,99382.13
2023-04-25T14:05:25.798Z,99449.38
2023-04-25T14:08:02.196Z,99485.31
2023-04-25T14:10:33.346Z,99494.72
2023-04-25T14:13:08.827Z,99490.84
2023-04-25T14:15:38.389Z,99498.94
2023-04-25T14:18:07.510Z,99499.16
2023-04-25T14:20:37.594Z,99546.25
2023-04-25T14:23:08.105Z,99471.75
2023-04-25T14:25:43.049Z,99446.81
2023-04-25T14:28:24.216Z,99420.78
2023-04-25T14:31:05.450Z,99487.25
2023-04-25T14:33:43.809Z,99420.13
2023-04-25T14:36:15.398Z,99432.19
2023-04-25T14:38:45.044Z,99485.66
2023-04-25T14:41:24.292Z,99429.19
2023-04-25T14:43:56.818Z,99330.78
2023-04-25T14:46:29.508Z,99301.31
2023-04-25T14:49:09.447Z,99294.16
2023-04-25T14:51:40.045Z,99226.69
2023-04-25T14:54:10.005Z,99244.09
2023-04-25T14:56:43.202Z,99097.25
2023-04-25T14:59:21.595Z,99106.09
2023-04-25T15:01:51.909Z,99126.53
2023-04-25T15:04:23.464Z,99197.00
2023-04-25T15:06:56.684Z,99133.63
2023-04-25T15:09:31.045Z,99295.22
2023-04-25T15:12:05.193Z,99237.78
2023-04-25T15:14:35.122Z,99227.06
2023-04-25T15:17:06.027Z,99269.78
2023-04-25T15:19:36.520Z,99270.72
2023-04-25T15:22:04.680Z,99204.59
2023-04-25T15:24:34.540Z,99298.41
2023-04-25T15:27:05.490Z,99341.53
2023-04-25T15:29:40.425Z,99301.72
2023-04-25T15:32:11.946Z,99293.81
2023-04-25T15:34:47.208Z,99279.78
2023-04-25T15:37:18.371Z,99245.38
2023-04-25T15:39:49.162Z,99330.75
2023-04-25T15:42:20.152Z,99241.44
2023-04-25T15:45:01.252Z,99289.06
2023-04-25T15:47:34.662Z,99325.31
2023-04-25T15:50:08.812Z,99376.44
2023-04-25T15:52:39.617Z,99356.78
2023-04-25T15:55:09.259Z,99398.94
2023-04-25T15:57:43.462Z,99294.91
2023-04-25T16:00:13.319Z,99309.97
2023-04-25T16:02:53.125Z,99346.31
2023-04-25T16:05:21.546Z,99368.19
2023-04-25T16:07:53.901Z,99326.16
2023-04-25T16:10:25.184Z,99318.50
2023-04-25T16:12:59.331Z,99315.81
2023-04-25T16:15:27.763Z,99314.84
2023-04-25T16:18:01.274Z,99336.09
2023-04-25T16:20:33.203Z,99301.19
2023-04-25T16:23:15.000Z,99409.31
2023-04-25T16:25:43.216Z,99367.28
2023-04-25T16:28:13.808Z,99348.16
2023-04-25T16:30:42.846Z,99349.53
2023-04-25T16:33:11.855Z,99353.78
2023-04-25T16:35:39.933Z,99341.09
2023-04-25T16:38:08.045Z,99337.56
2023-04-25T16:40:38.742Z,99382.47
2023-04-25T16:43:09.993Z,99427.41
2023-04-25T16:45:43.077Z,99448.50
2023-04-25T16:48:12.433Z,99399.94
2023-04-25T16:50:41.010Z,99409.66
2023-04-25T16:53:16.481Z,99418.41
2023-04-25T16:55:44.870Z,99413.94
2023-04-25T16:58:18.802Z,99350.13
2023-04-25T17:00:48.482Z,99272.59
2023-04-25T17:03:17.120Z,99327.25
2023-04-25T17:05:50.715Z,99353.00
2023-04-25T17:08:21.826Z,99411.31
2023-04-25T17:10:51.017Z,99450.34
2023-04-25T17:13:31.102Z,99476.38
2023-04-25T17:16:02.747Z,99504.63
2023-04-25T17:18:31.100Z,99487.22
2023-04-25T17:21:02.708Z,99462.88
2023-04-25T17:23:33.812Z,99537.72
2023-04-25T17:26:02.578Z,99526.91
2023-04-25T17:28:31.137Z,99556.56
2023-04-25T17:31:01.611Z,99544.84
2023-04-25T17:33:42.668Z,99526.09
2023-04-25T17:36:13.437Z,99519.25
2023-04-25T17:38:41.510Z,99395.41
2023-04-25T17:41:13.366Z,99332.72
2023-04-25T17:43:42.070Z,99211.91
2023-04-25T17:46:10.381Z,99048.94
2023-04-25T17:48:41.134Z,99077.59
2023-04-25T17:51:09.919Z,99087.91
2023-04-25T17:53:37.915Z,99081.63
2023-04-25T17:56:16.175Z,99068.38
2023-04-25T17:58:55.042Z,99102.97
2023-04-25T18:01:24.161Z,99144.00
2023-04-25T18:03:55.360Z,99194.84
2023-04-25T18:06:28.450Z,99230.03
2023-04-25T18:09:00.384Z,99229.47
2023-04-25T18:11:31.970Z,99250.28
2023-04-25T18:14:06.469Z,99249.13
2023-04-25T18:16:34.679Z,99251.81
2023-04-25T18:19:05.971Z,99212.44
2023-04-25T18:21:34.432Z,99194.22
2023-04-25T18:24:06.373Z,99179.69
2023-04-25T18:26:35.827Z,99185.50
2023-04-25T18:29:04.836Z,99195.66
2023-04-25T18:31:33.648Z,99211.97
2023-04-25T18:34:07.415Z,99218.97
2023-04-25T18:36:40.969Z,99216.78
2023-04-25T18:39:21.401Z,99248.16
2023-04-25T18:41:57.181Z,99285.59
2023-04-25T18:44:28.197Z,99317.03
2023-04-25T18:46:56.435Z,99355.56
2023-04-25T18:49:26.538Z,99379.13
2023-04-25T18:51:57.855Z,99411.38
2023-04-25T18:54:26.271Z,99451.53
2023-04-25T18:57:01.288Z,99477.53
2023-04-25T18:59:36.638Z,99507.38
2023-04-25T19:02:05.487Z,99524.38
2023-04-25T19:04:35.598Z,99561.91
2023-04-25T19:07:09.507Z,99552.88
2023-04-25T19:09:37.972Z,99598.03
2023-04-25T19:12:06.924Z,99600.19
2023-04-25T19:14:38.933Z,99640.91
2023-04-25T19:17:09.135Z,99638.63
2023-04-25T19:19:46.955Z,99671.28
2023-04-25T19:22:16.899Z,99676.03
2023-04-25T19:24:52.964Z,99703.38
2023-04-25T19:27:33.770Z,99715.84
2023-04-25T19:30:09.052Z,99738.91
2023-04-25T19:32:41.662Z,99749.09
2023-04-25T19:35:12.012Z,99733.63
2023-04-25T19:37:46.184Z,99741.44
2023-04-25T19:40:18.311Z,99743.78
2023-04-25T19:42:47.588Z,99786.25
2023-04-25T19:45:15.662Z,99801.66
2023-04-25T19:47:44.931Z,99800.16
2023-04-25T19:50:17.390Z,99818.06
2023-04-25T19:52:52.098Z,99815.47
2023-04-25T19:55:25.152Z,99813.91
2023-04-25T19:57:53.036Z,99832.09
2023-04-25T20:00:22.226Z,99831.06
2023-04-25T20:02:53.559Z,99823.22
2023-04-25T20:05:23.641Z,99824.84
2023-04-25T20:07:51.996Z,99824.00
2023-04-25T20:10:23.169Z,99839.19
2023-04-25T20:12:51.886Z,99826.16
2023-04-25T20:15:22.192Z,99835.09
2023-04-25T20:17:50.421Z,99866.88
2023-04-25T20:20:21.426Z,99869.00
2023-04-25T20:22:51.138Z,99885.94
2023-04-25T20:25:19.760Z,99880.97
2023-04-25T20:27:47.675Z,99912.84
2023-04-25T20:30:19.801Z,99942.78
2023-04-25T20:32:47.821Z,99941.88
2023-04-25T20:35:17.655Z,99948.88
2023-04-25T20:37:47.622Z,99958.66
2023-04-25T20:40:19.733Z,99962.94
2023-04-25T20:42:48.564Z,99955.13
2023-04-25T20:45:22.684Z,99945.63
2023-04-25T20:47:54.354Z,99950.06
2023-04-25T20:50:22.594Z,99973.09
2023-04-25T20:52:53.829Z,99991.44
2023-04-25T20:55:25.912Z,100002.34
2023-04-25T20:57:55.162Z,100018.47
2023-04-25T21:00:29.243Z,100024.03
2023-04-25T21:02:58.519Z,100047.94
2023-04-25T21:05:27.081Z,100070.97
2023-04-25T21:07:55.764Z,100071.31
2023-04-25T21:10:25.692Z,100094.41
2023-04-25T21:12:56.623Z,100097.41
2023-04-25T21:15:26.265Z,100117.88
2023-04-25T21:18:00.492Z,100141.00
2023-04-25T21:20:28.840Z,100146.50
2023-04-25T21:22:56.773Z,100162.69
2023-04-25T21:25:31.002Z,100177.88
2023-04-25T21:28:00.572Z,100192.25
2023-04-25T21:30:28.733Z,100196.88
2023-04-25T21:32:56.858Z,100221.38
2023-04-25T21:35:25.299Z,100226.94
2023-04-25T21:37:53.752Z,100242.94
2023-04-25T21:40:22.269Z,100243.13
2023-04-25T21:42:53.399Z,100261.63
2023-04-25T21:45:22.378Z,100265.28
2023-04-25T21:47:53.688Z,100290.78
2023-04-25T21:50:22.389Z,100293.44
2023-04-25T21:52:50.930Z,100297.00
2023-04-25T21:55:19.950Z,100301.56
2023-04-25T21:57:54.552Z,100316.50
2023-04-25T22:00:24.718Z,100320.22
2023-04-25T22:02:53.872Z,100327.31
2023-04-25T22:05:27.050Z,100333.47
2023-04-25T22:07:57.875Z,100327.34
2023-04-25T22:10:28.522Z,100345.97
2023-04-25T22:13:01.634Z,100340.84
2023-04-25T22:15:35.592Z,100362.88
2023-04-25T22:18:05.853Z,100367.44
2023-04-25T22:20:34.748Z,100378.94
2023-04-25T22:23:03.493Z,100368.38
2023-04-25T22:25:40.214Z,100384.22
2023-04-25T22:28:14.836Z,100382.56
2023-04-25T22:30:43.160Z,100389.63
2023-04-25T22:33:11.423Z,100389.78
2023-04-25T22:35:39.579Z,100412.75
2023-04-25T22:38:07.559Z,100438.28
2023-04-25T22:40:35.610Z,100436.72
2023-04-25T22:43:03.747Z,100452.69
2023-04-25T22:45:33.369Z,100451.94
2023-04-25T22:48:01.319Z,100478.41
2023-04-25T22:50:32.133Z,100483.81
2023-04-25T22:53:00.626Z,100499.63
2023-04-25T22:55:28.669Z,100503.28
2023-04-25T22:57:57.122Z,100526.22
2023-04-25T23:00:30.728Z,100541.97
2023-04-25T23:03:00.521Z,100549.84
2023-04-25T23:05:28.941Z,100549.88
2023-04-25T23:07:57.994Z,100553.44
2023-04-25T23:10:26.273Z,100559.59
2023-04-25T23:12:55.040Z,100566.63
2023-04-25T23:15:23.196Z,100555.25
2023-04-25T23:17:52.438Z,100563.25
2023-04-25T23:20:21.908Z,100582.63
2023-04-25T23:22:50.449Z,100577.44
2023-04-25T23:25:19.179Z,100599.38
2023-04-25T23:27:49.457Z,100594.31
2023-04-25T23:30:20.802Z,100607.44
2023-04-25T23:32:54.721Z,100623.19
2023-04-25T23:35:25.017Z,100620.72
2023-04-25T23:37:53.021Z,100631.31
2023-04-25T23:40:21.316Z,100628.69
2023-04-25T23:42:56.702Z,100650.63
2023-04-25T23:45:28.630Z,100640.19
2023-04-25T23:47:58.514Z,100635.75
2023-04-25T23:50:31.037Z,100652.44
2023-04-25T23:53:00.626Z,100646.28
2023-04-25T23:55:28.909Z,100657.66
2023-04-25T23:57:57.185Z,100653.34
